sensor_id;sensor_type;location;lat;lon;timestamp;temperature;humidity
21807;DHT22;11065;50.786;7.840;2022-10-23T00:00:15;13.60;60.50
21807;DHT22;11065;50.786;7.840;2022-10-23T00:02:42;13.50;60.40
21807;DHT22;11065;50.786;7.840;2022-10-23T00:05:10;13.50;61.00
21807;DHT22;11065;50.786;7.840;2022-10-23T00:07:36;13.50;60.30
21807;DHT22;11065;50.786;7.840;2022-10-23T00:10:04;13.50;60.30
21807;DHT22;11065;50.786;7.840;2022-10-23T00:12:31;13.40;60.20
21807;DHT22;11065;50.786;7.840;2022-10-23T00:14:58;13.40;60.20
21807;DHT22;11065;50.786;7.840;2022-10-23T00:17:24;13.40;60.20
21807;DHT22;11065;50.786;7.840;2022-10-23T00:19:51;13.30;60.10
21807;DHT22;11065;50.786;7.840;2022-10-23T00:22:18;13.30;60.10
21807;DHT22;11065;50.786;7.840;2022-10-23T00:24:45;13.20;60.00
21807;DHT22;11065;50.786;7.840;2022-10-23T00:27:12;13.20;60.10
21807;DHT22;11065;50.786;7.840;2022-10-23T00:29:39;13.20;60.00
21807;DHT22;11065;50.786;7.840;2022-10-23T00:32:05;13.20;60.10
21807;DHT22;11065;50.786;7.840;2022-10-23T00:34:32;13.10;60.10
21807;DHT22;11065;50.786;7.840;2022-10-23T00:36:59;13.10;60.20
21807;DHT22;11065;50.786;7.840;2022-10-23T00:39:26;13.00;61.00
21807;DHT22;11065;50.786;7.840;2022-10-23T00:41:53;13.10;60.50
21807;DHT22;11065;50.786;7.840;2022-10-23T00:46:47;13.00;60.60
21807;DHT22;11065;50.786;7.840;2022-10-23T00:49:15;13.00;60.70
21807;DHT22;11065;50.786;7.840;2022-10-23T00:51:43;13.00;60.90
21807;DHT22;11065;50.786;7.840;2022-10-23T00:54:12;13.00;61.00
21807;DHT22;11065;50.786;7.840;2022-10-23T00:57:00;13.00;61.10
21807;DHT22;11065;50.786;7.840;2022-10-23T00:59:28;13.00;61.30
21807;DHT22;11065;50.786;7.840;2022-10-23T01:01:55;13.00;61.20
21807;DHT22;11065;50.786;7.840;2022-10-23T01:04:23;13.00;61.30
21807;DHT22;11065;50.786;7.840;2022-10-23T01:07:06;13.00;61.50
21807;DHT22;11065;50.786;7.840;2022-10-23T01:09:56;13.00;61.90
21807;DHT22;11065;50.786;7.840;2022-10-23T01:12:35;13.00;62.30
21807;DHT22;11065;50.786;7.840;2022-10-23T01:18:09;13.00;62.10
21807;DHT22;11065;50.786;7.840;2022-10-23T01:20:48;13.10;62.00
21807;DHT22;11065;50.786;7.840;2022-10-23T01:23:41;13.00;61.90
21807;DHT22;11065;50.786;7.840;2022-10-23T01:26:41;13.10;62.70
21807;DHT22;11065;50.786;7.840;2022-10-23T01:32:12;13.10;62.20
21807;DHT22;11065;50.786;7.840;2022-10-23T01:34:43;13.00;61.90
21807;DHT22;11065;50.786;7.840;2022-10-23T01:37:16;13.00;62.00
21807;DHT22;11065;50.786;7.840;2022-10-23T01:39:49;13.10;62.10
21807;DHT22;11065;50.786;7.840;2022-10-23T01:42:28;13.00;62.10
21807;DHT22;11065;50.786;7.840;2022-10-23T01:45:24;13.00;62.40
21807;DHT22;11065;50.786;7.840;2022-10-23T01:47:53;13.10;62.70
21807;DHT22;11065;50.786;7.840;2022-10-23T01:50:23;13.00;62.00
21807;DHT22;11065;50.786;7.840;2022-10-23T01:52:56;13.00;62.00
21807;DHT22;11065;50.786;7.840;2022-10-23T01:55:24;13.00;62.00
21807;DHT22;11065;50.786;7.840;2022-10-23T01:57:52;13.00;62.00
21807;DHT22;11065;50.786;7.840;2022-10-23T02:00:24;13.00;62.10
21807;DHT22;11065;50.786;7.840;2022-10-23T02:02:52;13.00;62.10
21807;DHT22;11065;50.786;7.840;2022-10-23T02:05:26;13.00;62.20
21807;DHT22;11065;50.786;7.840;2022-10-23T02:07:54;13.00;62.30
21807;DHT22;11065;50.786;7.840;2022-10-23T02:10:29;13.00;62.30
21807;DHT22;11065;50.786;7.840;2022-10-23T02:15:47;13.00;62.50
21807;DHT22;11065;50.786;7.840;2022-10-23T02:21:17;13.10;63.10
21807;DHT22;11065;50.786;7.840;2022-10-23T02:23:51;13.10;62.50
21807;DHT22;11065;50.786;7.840;2022-10-23T02:26:37;13.00;62.50
21807;DHT22;11065;50.786;7.840;2022-10-23T02:29:09;13.00;62.60
21807;DHT22;11065;50.786;7.840;2022-10-23T02:31:41;13.00;62.50
21807;DHT22;11065;50.786;7.840;2022-10-23T02:34:08;13.00;62.40
21807;DHT22;11065;50.786;7.840;2022-10-23T02:36:36;13.00;62.40
21807;DHT22;11065;50.786;7.840;2022-10-23T02:39:03;13.00;62.50
21807;DHT22;11065;50.786;7.840;2022-10-23T02:41:50;13.00;62.50
21807;DHT22;11065;50.786;7.840;2022-10-23T02:55:29;13.00;63.20
21807;DHT22;11065;50.786;7.840;2022-10-23T02:58:08;13.00;63.00
21807;DHT22;11065;50.786;7.840;2022-10-23T03:00:44;13.00;63.00
21807;DHT22;11065;50.786;7.840;2022-10-23T03:03:15;13.00;62.80
21807;DHT22;11065;50.786;7.840;2022-10-23T03:05:43;13.00;62.80
21807;DHT22;11065;50.786;7.840;2022-10-23T03:08:13;13.00;62.80
21807;DHT22;11065;50.786;7.840;2022-10-23T03:10:41;13.00;62.80
21807;DHT22;11065;50.786;7.840;2022-10-23T03:13:10;13.00;63.00
21807;DHT22;11065;50.786;7.840;2022-10-23T03:15:41;13.00;62.70
21807;DHT22;11065;50.786;7.840;2022-10-23T03:18:12;13.00;62.70
21807;DHT22;11065;50.786;7.840;2022-10-23T03:20:43;13.00;62.70
21807;DHT22;11065;50.786;7.840;2022-10-23T03:23:12;13.00;62.60
21807;DHT22;11065;50.786;7.840;2022-10-23T03:25:38;13.00;62.60
21807;DHT22;11065;50.786;7.840;2022-10-23T03:28:05;13.00;62.60
21807;DHT22;11065;50.786;7.840;2022-10-23T03:30:34;13.00;62.60
21807;DHT22;11065;50.786;7.840;2022-10-23T03:33:00;13.00;62.70
21807;DHT22;11065;50.786;7.840;2022-10-23T03:35:27;13.00;62.70
21807;DHT22;11065;50.786;7.840;2022-10-23T03:37:54;13.00;62.80
21807;DHT22;11065;50.786;7.840;2022-10-23T03:40:23;13.00;62.90
21807;DHT22;11065;50.786;7.840;2022-10-23T03:42:50;13.00;63.00
21807;DHT22;11065;50.786;7.840;2022-10-23T03:45:18;13.00;63.00
21807;DHT22;11065;50.786;7.840;2022-10-23T03:47:46;13.00;62.90
21807;DHT22;11065;50.786;7.840;2022-10-23T03:50:14;12.90;62.80
21807;DHT22;11065;50.786;7.840;2022-10-23T03:52:41;12.90;62.80
21807;DHT22;11065;50.786;7.840;2022-10-23T03:55:11;12.90;62.70
21807;DHT22;11065;50.786;7.840;2022-10-23T03:57:38;12.90;62.70
21807;DHT22;11065;50.786;7.840;2022-10-23T04:00:05;12.90;62.80
21807;DHT22;11065;50.786;7.840;2022-10-23T04:02:42;12.90;62.90
21807;DHT22;11065;50.786;7.840;2022-10-23T04:05:10;12.90;62.90
21807;DHT22;11065;50.786;7.840;2022-10-23T04:07:39;12.90;63.80
21807;DHT22;11065;50.786;7.840;2022-10-23T04:10:06;12.80;63.00
21807;DHT22;11065;50.786;7.840;2022-10-23T04:12:33;12.80;63.00
21807;DHT22;11065;50.786;7.840;2022-10-23T04:15:00;12.80;63.00
21807;DHT22;11065;50.786;7.840;2022-10-23T04:17:27;12.80;63.00
21807;DHT22;11065;50.786;7.840;2022-10-23T04:19:54;12.80;63.00
21807;DHT22;11065;50.786;7.840;2022-10-23T04:22:20;12.80;62.90
21807;DHT22;11065;50.786;7.840;2022-10-23T04:24:53;12.80;62.80
21807;DHT22;11065;50.786;7.840;2022-10-23T04:27:20;12.80;62.80
21807;DHT22;11065;50.786;7.840;2022-10-23T04:29:47;12.80;62.80
21807;DHT22;11065;50.786;7.840;2022-10-23T04:32:14;12.70;62.80
21807;DHT22;11065;50.786;7.840;2022-10-23T04:34:43;12.70;62.80
21807;DHT22;11065;50.786;7.840;2022-10-23T04:37:10;12.70;62.80
21807;DHT22;11065;50.786;7.840;2022-10-23T04:39:37;12.70;62.80
21807;DHT22;11065;50.786;7.840;2022-10-23T04:42:04;12.70;62.90
21807;DHT22;11065;50.786;7.840;2022-10-23T04:44:31;12.60;62.90
21807;DHT22;11065;50.786;7.840;2022-10-23T04:46:58;12.60;63.00
21807;DHT22;11065;50.786;7.840;2022-10-23T04:49:24;12.60;63.10
21807;DHT22;11065;50.786;7.840;2022-10-23T04:52:10;12.60;63.20
21807;DHT22;11065;50.786;7.840;2022-10-23T04:54:49;12.60;63.20
21807;DHT22;11065;50.786;7.840;2022-10-23T04:57:19;12.60;63.20
21807;DHT22;11065;50.786;7.840;2022-10-23T04:59:56;12.50;63.10
21807;DHT22;11065;50.786;7.840;2022-10-23T05:02:23;12.50;63.20
21807;DHT22;11065;50.786;7.840;2022-10-23T05:04:51;12.50;63.20
21807;DHT22;11065;50.786;7.840;2022-10-23T05:07:52;12.50;63.20
21807;DHT22;11065;50.786;7.840;2022-10-23T05:10:27;12.50;63.10
21807;DHT22;11065;50.786;7.840;2022-10-23T05:13:07;12.50;63.20
21807;DHT22;11065;50.786;7.840;2022-10-23T05:15:34;12.40;63.10
21807;DHT22;11065;50.786;7.840;2022-10-23T05:18:12;12.40;63.30
21807;DHT22;11065;50.786;7.840;2022-10-23T05:20:44;12.40;63.60
21807;DHT22;11065;50.786;7.840;2022-10-23T05:23:13;12.40;63.50
21807;DHT22;11065;50.786;7.840;2022-10-23T05:25:49;12.40;63.60
21807;DHT22;11065;50.786;7.840;2022-10-23T05:28:17;12.40;63.60
21807;DHT22;11065;50.786;7.840;2022-10-23T05:30:44;12.40;63.60
21807;DHT22;11065;50.786;7.840;2022-10-23T05:33:12;12.40;63.60
21807;DHT22;11065;50.786;7.840;2022-10-23T05:35:41;12.40;63.70
21807;DHT22;11065;50.786;7.840;2022-10-23T05:38:12;12.40;63.60
21807;DHT22;11065;50.786;7.840;2022-10-23T05:40:39;12.40;63.70
21807;DHT22;11065;50.786;7.840;2022-10-23T05:43:11;12.40;63.70
21807;DHT22;11065;50.786;7.840;2022-10-23T05:45:57;12.40;63.80
21807;DHT22;11065;50.786;7.840;2022-10-23T05:48:45;12.40;63.80
21807;DHT22;11065;50.786;7.840;2022-10-23T05:51:23;12.40;63.80
21807;DHT22;11065;50.786;7.840;2022-10-23T05:53:55;12.40;63.90
21807;DHT22;11065;50.786;7.840;2022-10-23T05:56:34;12.40;64.00
21807;DHT22;11065;50.786;7.840;2022-10-23T05:59:12;12.40;64.00
21807;DHT22;11065;50.786;7.840;2022-10-23T06:01:50;12.40;64.00
21807;DHT22;11065;50.786;7.840;2022-10-23T06:04:28;12.40;64.00
21807;DHT22;11065;50.786;7.840;2022-10-23T06:07:28;12.40;64.00
21807;DHT22;11065;50.786;7.840;2022-10-23T06:10:04;12.40;64.10
21807;DHT22;11065;50.786;7.840;2022-10-23T06:12:34;12.40;64.10
21807;DHT22;11065;50.786;7.840;2022-10-23T06:15:02;12.40;64.00
21807;DHT22;11065;50.786;7.840;2022-10-23T06:17:49;12.40;64.00
21807;DHT22;11065;50.786;7.840;2022-10-23T06:20:16;12.30;63.90
21807;DHT22;11065;50.786;7.840;2022-10-23T06:22:49;12.30;64.00
21807;DHT22;11065;50.786;7.840;2022-10-23T06:25:34;12.30;64.20
21807;DHT22;11065;50.786;7.840;2022-10-23T06:28:03;12.40;64.40
21807;DHT22;11065;50.786;7.840;2022-10-23T06:30:30;12.30;64.50
21807;DHT22;11065;50.786;7.840;2022-10-23T06:32:58;12.40;64.70
21807;DHT22;11065;50.786;7.840;2022-10-23T06:35:30;12.40;64.80
21807;DHT22;11065;50.786;7.840;2022-10-23T06:37:57;12.40;64.80
21807;DHT22;11065;50.786;7.840;2022-10-23T06:40:37;12.40;65.00
21807;DHT22;11065;50.786;7.840;2022-10-23T06:43:06;12.50;65.00
21807;DHT22;11065;50.786;7.840;2022-10-23T06:45:55;12.50;65.10
21807;DHT22;11065;50.786;7.840;2022-10-23T06:48:51;12.50;65.20
21807;DHT22;11065;50.786;7.840;2022-10-23T06:51:24;12.50;65.30
21807;DHT22;11065;50.786;7.840;2022-10-23T06:53:56;12.60;65.60
21807;DHT22;11065;50.786;7.840;2022-10-23T06:57:01;12.60;65.70
21807;DHT22;11065;50.786;7.840;2022-10-23T06:59:36;12.70;65.80
21807;DHT22;11065;50.786;7.840;2022-10-23T07:02:05;12.70;65.70
21807;DHT22;11065;50.786;7.840;2022-10-23T07:04:33;12.70;65.70
21807;DHT22;11065;50.786;7.840;2022-10-23T07:07:02;12.80;65.60
21807;DHT22;11065;50.786;7.840;2022-10-23T07:09:38;12.80;66.30
21807;DHT22;11065;50.786;7.840;2022-10-23T07:12:18;12.90;65.60
21807;DHT22;11065;50.786;7.840;2022-10-23T07:14:49;12.90;65.70
21807;DHT22;11065;50.786;7.840;2022-10-23T07:17:16;12.90;65.70
21807;DHT22;11065;50.786;7.840;2022-10-23T07:19:45;13.00;65.90
21807;DHT22;11065;50.786;7.840;2022-10-23T07:22:14;13.10;66.20
21807;DHT22;11065;50.786;7.840;2022-10-23T07:24:53;13.10;66.20
21807;DHT22;11065;50.786;7.840;2022-10-23T07:27:36;13.20;66.40
21807;DHT22;11065;50.786;7.840;2022-10-23T07:30:06;13.30;66.70
21807;DHT22;11065;50.786;7.840;2022-10-23T07:32:42;13.30;66.60
21807;DHT22;11065;50.786;7.840;2022-10-23T07:35:24;13.40;66.70
21807;DHT22;11065;50.786;7.840;2022-10-23T07:38:03;13.50;66.70
21807;DHT22;11065;50.786;7.840;2022-10-23T07:40:35;13.60;66.90
21807;DHT22;11065;50.786;7.840;2022-10-23T07:43:02;13.60;67.00
21807;DHT22;11065;50.786;7.840;2022-10-23T07:45:29;13.70;67.20
21807;DHT22;11065;50.786;7.840;2022-10-23T07:48:00;13.80;67.40
21807;DHT22;11065;50.786;7.840;2022-10-23T07:50:39;13.90;67.40
21807;DHT22;11065;50.786;7.840;2022-10-23T07:53:06;14.00;67.30
21807;DHT22;11065;50.786;7.840;2022-10-23T07:55:40;14.10;67.20
21807;DHT22;11065;50.786;7.840;2022-10-23T07:58:12;14.20;67.00
21807;DHT22;11065;50.786;7.840;2022-10-23T08:00:43;14.30;67.10
21807;DHT22;11065;50.786;7.840;2022-10-23T08:03:22;14.40;67.20
21807;DHT22;11065;50.786;7.840;2022-10-23T08:05:49;14.40;67.50
21807;DHT22;11065;50.786;7.840;2022-10-23T08:08:17;14.50;67.80
21807;DHT22;11065;50.786;7.840;2022-10-23T08:10:48;14.60;67.90
21807;DHT22;11065;50.786;7.840;2022-10-23T08:13:21;14.70;68.20
21807;DHT22;11065;50.786;7.840;2022-10-23T08:15:57;14.80;68.40
21807;DHT22;11065;50.786;7.840;2022-10-23T08:19:01;14.90;68.50
21807;DHT22;11065;50.786;7.840;2022-10-23T08:21:28;15.10;68.50
21807;DHT22;11065;50.786;7.840;2022-10-23T08:23:56;15.20;68.40
21807;DHT22;11065;50.786;7.840;2022-10-23T08:26:25;15.30;68.30
21807;DHT22;11065;50.786;7.840;2022-10-23T08:28:52;15.40;68.20
21807;DHT22;11065;50.786;7.840;2022-10-23T08:31:21;15.50;68.10
21807;DHT22;11065;50.786;7.840;2022-10-23T08:34:15;15.60;68.20
21807;DHT22;11065;50.786;7.840;2022-10-23T08:36:44;15.70;68.40
21807;DHT22;11065;50.786;7.840;2022-10-23T08:39:11;15.80;68.80
21807;DHT22;11065;50.786;7.840;2022-10-23T08:41:49;16.00;69.80
21807;DHT22;11065;50.786;7.840;2022-10-23T08:44:32;16.10;70.20
21807;DHT22;11065;50.786;7.840;2022-10-23T08:47:08;16.40;70.10
21807;DHT22;11065;50.786;7.840;2022-10-23T08:53:17;16.80;69.80
21807;DHT22;11065;50.786;7.840;2022-10-23T08:55:32;17.00;69.20
21807;DHT22;11065;50.786;7.840;2022-10-23T08:58:06;17.20;68.40
21807;DHT22;11065;50.786;7.840;2022-10-23T09:00:33;17.30;68.60
21807;DHT22;11065;50.786;7.840;2022-10-23T09:03:03;17.60;71.50
21807;DHT22;11065;50.786;7.840;2022-10-23T09:05:34;18.10;73.20
21807;DHT22;11065;50.786;7.840;2022-10-23T09:19:35;22.60;70.50
21807;DHT22;11065;50.786;7.840;2022-10-23T09:22:02;23.60;69.30
21807;DHT22;11065;50.786;7.840;2022-10-23T09:24:30;24.20;63.10
21807;DHT22;11065;50.786;7.840;2022-10-23T09:26:59;24.50;60.40
21807;DHT22;11065;50.786;7.840;2022-10-23T09:29:29;24.70;58.50
21807;DHT22;11065;50.786;7.840;2022-10-23T09:32:05;24.70;57.40
21807;DHT22;11065;50.786;7.840;2022-10-23T09:34:33;24.50;56.00
21807;DHT22;11065;50.786;7.840;2022-10-23T09:40:17;24.10;56.30
21807;DHT22;11065;50.786;7.840;2022-10-23T09:45:24;23.60;56.60
21807;DHT22;11065;50.786;7.840;2022-10-23T09:48:09;23.50;56.80
21807;DHT22;11065;50.786;7.840;2022-10-23T09:50:36;23.40;56.60
21807;DHT22;11065;50.786;7.840;2022-10-23T09:53:15;23.30;57.20
21807;DHT22;11065;50.786;7.840;2022-10-23T09:55:50;23.20;56.20
21807;DHT22;11065;50.786;7.840;2022-10-23T09:58:28;23.10;56.10
21807;DHT22;11065;50.786;7.840;2022-10-23T10:00:56;23.00;55.90
21807;DHT22;11065;50.786;7.840;2022-10-23T10:03:48;22.80;55.90
21807;DHT22;11065;50.786;7.840;2022-10-23T10:06:22;22.70;55.50
21807;DHT22;11065;50.786;7.840;2022-10-23T10:08:52;22.50;55.70
21807;DHT22;11065;50.786;7.840;2022-10-23T10:24:34;21.90;56.40
21807;DHT22;11065;50.786;7.840;2022-10-23T10:30:19;21.80;55.80
21807;DHT22;11065;50.786;7.840;2022-10-23T10:33:05;21.80;56.50
21807;DHT22;11065;50.786;7.840;2022-10-23T10:35:42;21.70;56.00
21807;DHT22;11065;50.786;7.840;2022-10-23T10:38:29;21.70;56.40
21807;DHT22;11065;50.786;7.840;2022-10-23T10:41:09;21.60;56.50
21807;DHT22;11065;50.786;7.840;2022-10-23T10:48:58;21.40;56.90
21807;DHT22;11065;50.786;7.840;2022-10-23T10:51:43;21.40;56.50
21807;DHT22;11065;50.786;7.840;2022-10-23T10:57:12;21.30;56.90
21807;DHT22;11065;50.786;7.840;2022-10-23T10:59:43;21.30;56.60
21807;DHT22;11065;50.786;7.840;2022-10-23T11:07:54;21.30;55.90
21807;DHT22;11065;50.786;7.840;2022-10-23T11:10:23;21.20;55.30
21807;DHT22;11065;50.786;7.840;2022-10-23T11:12:50;21.20;55.60
21807;DHT22;11065;50.786;7.840;2022-10-23T11:15:37;21.20;55.40
21807;DHT22;11065;50.786;7.840;2022-10-23T11:18:12;21.10;54.80
21807;DHT22;11065;50.786;7.840;2022-10-23T11:26:27;21.00;55.10
21807;DHT22;11065;50.786;7.840;2022-10-23T11:35:41;20.70;55.10
21807;DHT22;11065;50.786;7.840;2022-10-23T11:38:28;20.60;55.00
21807;DHT22;11065;50.786;7.840;2022-10-23T11:43:55;20.50;55.40
21807;DHT22;11065;50.786;7.840;2022-10-23T11:48:54;20.40;55.90
21807;DHT22;11065;50.786;7.840;2022-10-23T11:51:38;20.30;56.10
21807;DHT22;11065;50.786;7.840;2022-10-23T11:57:00;20.30;56.30
21807;DHT22;11065;50.786;7.840;2022-10-23T11:59:32;20.30;56.40
21807;DHT22;11065;50.786;7.840;2022-10-23T12:02:48;20.30;56.50
21807;DHT22;11065;50.786;7.840;2022-10-23T12:04:50;20.30;56.40
21807;DHT22;11065;50.786;7.840;2022-10-23T12:07:25;20.30;56.50
21807;DHT22;11065;50.786;7.840;2022-10-23T12:10:06;20.30;56.60
21807;DHT22;11065;50.786;7.840;2022-10-23T12:12:35;20.40;56.70
21807;DHT22;11065;50.786;7.840;2022-10-23T12:15:16;20.50;57.20
21807;DHT22;11065;50.786;7.840;2022-10-23T12:17:45;20.70;57.20
21807;DHT22;11065;50.786;7.840;2022-10-23T12:20:37;20.80;57.20
21807;DHT22;11065;50.786;7.840;2022-10-23T12:28:35;21.20;56.00
21807;DHT22;11065;50.786;7.840;2022-10-23T12:38:52;21.60;56.10
21807;DHT22;11065;50.786;7.840;2022-10-23T12:41:30;21.70;56.40
21807;DHT22;11065;50.786;7.840;2022-10-23T12:44:02;21.90;55.90
21807;DHT22;11065;50.786;7.840;2022-10-23T12:46:33;22.10;56.50
21807;DHT22;11065;50.786;7.840;2022-10-23T12:49:17;22.40;56.30
21807;DHT22;11065;50.786;7.840;2022-10-23T12:51:45;22.60;55.80
21807;DHT22;11065;50.786;7.840;2022-10-23T12:54:20;22.90;56.00
21807;DHT22;11065;50.786;7.840;2022-10-23T12:56:47;23.00;55.30
21807;DHT22;11065;50.786;7.840;2022-10-23T12:59:32;23.20;55.00
21807;DHT22;11065;50.786;7.840;2022-10-23T13:04:46;23.40;53.80
21807;DHT22;11065;50.786;7.840;2022-10-23T13:07:17;23.60;54.70
21807;DHT22;11065;50.786;7.840;2022-10-23T13:09:45;23.60;53.50
21807;DHT22;11065;50.786;7.840;2022-10-23T13:12:23;23.60;53.30
21807;DHT22;11065;50.786;7.840;2022-10-23T13:15:13;23.60;53.20
21807;DHT22;11065;50.786;7.840;2022-10-23T13:17:41;23.50;52.30
21807;DHT22;11065;50.786;7.840;2022-10-23T13:22:41;23.50;52.60
21807;DHT22;11065;50.786;7.840;2022-10-23T13:25:32;23.50;52.90
21807;DHT22;11065;50.786;7.840;2022-10-23T13:30:43;23.30;52.10
21807;DHT22;11065;50.786;7.840;2022-10-23T13:33:24;23.20;51.70
21807;DHT22;11065;50.786;7.840;2022-10-23T13:38:40;23.10;51.80
21807;DHT22;11065;50.786;7.840;2022-10-23T13:41:13;23.00;52.40
21807;DHT22;11065;50.786;7.840;2022-10-23T13:43:41;22.90;52.20
21807;DHT22;11065;50.786;7.840;2022-10-23T13:46:17;22.80;52.20
21807;DHT22;11065;50.786;7.840;2022-10-23T13:48:44;22.70;52.10
21807;DHT22;11065;50.786;7.840;2022-10-23T13:51:23;22.60;52.20
21807;DHT22;11065;50.786;7.840;2022-10-23T13:53:52;22.50;52.30
21807;DHT22;11065;50.786;7.840;2022-10-23T13:56:21;22.50;52.50
21807;DHT22;11065;50.786;7.840;2022-10-23T13:58:48;22.40;52.50
21807;DHT22;11065;50.786;7.840;2022-10-23T14:01:19;22.40;52.50
21807;DHT22;11065;50.786;7.840;2022-10-23T14:03:49;22.30;52.50
21807;DHT22;11065;50.786;7.840;2022-10-23T14:06:16;22.30;52.50
21807;DHT22;11065;50.786;7.840;2022-10-23T14:08:43;22.30;52.50
21807;DHT22;11065;50.786;7.840;2022-10-23T14:11:11;22.20;52.50
21807;DHT22;11065;50.786;7.840;2022-10-23T14:13:43;22.20;52.50
21807;DHT22;11065;50.786;7.840;2022-10-23T14:16:12;22.20;52.50
21807;DHT22;11065;50.786;7.840;2022-10-23T14:18:39;22.10;52.60
21807;DHT22;11065;50.786;7.840;2022-10-23T14:21:08;22.10;52.60
21807;DHT22;11065;50.786;7.840;2022-10-23T14:23:35;22.00;52.60
21807;DHT22;11065;50.786;7.840;2022-10-23T14:26:09;22.00;52.40
21807;DHT22;11065;50.786;7.840;2022-10-23T14:28:37;21.90;52.30
21807;DHT22;11065;50.786;7.840;2022-10-23T14:31:12;21.90;52.50
21807;DHT22;11065;50.786;7.840;2022-10-23T14:33:40;21.90;52.30
21807;DHT22;11065;50.786;7.840;2022-10-23T14:36:07;21.80;52.40
21807;DHT22;11065;50.786;7.840;2022-10-23T14:38:35;21.80;52.60
21807;DHT22;11065;50.786;7.840;2022-10-23T14:41:02;21.70;52.60
21807;DHT22;11065;50.786;7.840;2022-10-23T14:43:34;21.70;52.60
21807;DHT22;11065;50.786;7.840;2022-10-23T14:46:13;21.70;52.60
21807;DHT22;11065;50.786;7.840;2022-10-23T14:48:40;21.70;52.30
21807;DHT22;11065;50.786;7.840;2022-10-23T14:53:42;21.60;52.60
21807;DHT22;11065;50.786;7.840;2022-10-23T14:56:09;21.60;52.60
21807;DHT22;11065;50.786;7.840;2022-10-23T14:58:36;21.50;52.50
21807;DHT22;11065;50.786;7.840;2022-10-23T15:01:03;21.50;52.50
21807;DHT22;11065;50.786;7.840;2022-10-23T15:03:30;21.40;52.50
21807;DHT22;11065;50.786;7.840;2022-10-23T15:05:57;21.40;52.50
21807;DHT22;11065;50.786;7.840;2022-10-23T15:08:24;21.30;52.40
21807;DHT22;11065;50.786;7.840;2022-10-23T15:10:51;21.30;52.50
21807;DHT22;11065;50.786;7.840;2022-10-23T15:13:17;21.20;52.50
21807;DHT22;11065;50.786;7.840;2022-10-23T15:15:45;21.20;52.50
21807;DHT22;11065;50.786;7.840;2022-10-23T15:18:11;21.10;52.50
21807;DHT22;11065;50.786;7.840;2022-10-23T15:20:38;21.00;52.50
21807;DHT22;11065;50.786;7.840;2022-10-23T15:23:05;21.00;52.60
21807;DHT22;11065;50.786;7.840;2022-10-23T15:25:32;20.90;52.60
21807;DHT22;11065;50.786;7.840;2022-10-23T15:27:58;20.90;52.60
21807;DHT22;11065;50.786;7.840;2022-10-23T15:30:25;20.80;52.70
21807;DHT22;11065;50.786;7.840;2022-10-23T15:32:52;20.70;52.60
21807;DHT22;11065;50.786;7.840;2022-10-23T15:35:19;20.70;52.70
21807;DHT22;11065;50.786;7.840;2022-10-23T15:37:45;20.60;52.80
21807;DHT22;11065;50.786;7.840;2022-10-23T15:40:12;20.60;52.80
21807;DHT22;11065;50.786;7.840;2022-10-23T15:42:39;20.60;52.90
21807;DHT22;11065;50.786;7.840;2022-10-23T15:45:07;20.50;52.90
21807;DHT22;11065;50.786;7.840;2022-10-23T15:47:34;20.40;52.90
21807;DHT22;11065;50.786;7.840;2022-10-23T15:50:00;20.40;53.00
21807;DHT22;11065;50.786;7.840;2022-10-23T15:52:27;20.30;53.00
21807;DHT22;11065;50.786;7.840;2022-10-23T15:54:54;20.30;53.10
21807;DHT22;11065;50.786;7.840;2022-10-23T15:57:20;20.20;53.60
21807;DHT22;11065;50.786;7.840;2022-10-23T15:59:47;20.10;53.10
21807;DHT22;11065;50.786;7.840;2022-10-23T16:02:14;20.10;53.30
21807;DHT22;11065;50.786;7.840;2022-10-23T16:04:41;20.00;53.40
21807;DHT22;11065;50.786;7.840;2022-10-23T16:07:08;20.00;53.40
21807;DHT22;11065;50.786;7.840;2022-10-23T16:09:35;20.00;53.50
21807;DHT22;11065;50.786;7.840;2022-10-23T16:12:02;19.90;53.60
21807;DHT22;11065;50.786;7.840;2022-10-23T16:14:29;19.90;53.70
21807;DHT22;11065;50.786;7.840;2022-10-23T16:16:56;19.80;53.70
21807;DHT22;11065;50.786;7.840;2022-10-23T16:19:23;19.80;53.80
21807;DHT22;11065;50.786;7.840;2022-10-23T16:21:49;19.80;53.90
21807;DHT22;11065;50.786;7.840;2022-10-23T16:24:16;19.70;54.00
21807;DHT22;11065;50.786;7.840;2022-10-23T16:26:43;19.70;54.00
21807;DHT22;11065;50.786;7.840;2022-10-23T16:29:15;19.70;54.10
21807;DHT22;11065;50.786;7.840;2022-10-23T16:31:42;19.60;54.00
21807;DHT22;11065;50.786;7.840;2022-10-23T16:34:09;19.60;54.10
21807;DHT22;11065;50.786;7.840;2022-10-23T16:36:36;19.60;54.10
21807;DHT22;11065;50.786;7.840;2022-10-23T16:39:27;19.50;54.10
21807;DHT22;11065;50.786;7.840;2022-10-23T16:42:14;19.50;54.20
21807;DHT22;11065;50.786;7.840;2022-10-23T16:44:52;19.40;54.20
21807;DHT22;11065;50.786;7.840;2022-10-23T16:47:19;19.40;54.30
21807;DHT22;11065;50.786;7.840;2022-10-23T16:49:45;19.40;54.40
21807;DHT22;11065;50.786;7.840;2022-10-23T16:52:12;19.30;54.50
21807;DHT22;11065;50.786;7.840;2022-10-23T16:54:41;19.30;54.70
21807;DHT22;11065;50.786;7.840;2022-10-23T16:57:08;19.40;55.00
21807;DHT22;11065;50.786;7.840;2022-10-23T16:59:35;19.30;55.00
21807;DHT22;11065;50.786;7.840;2022-10-23T17:02:02;19.30;55.30
21807;DHT22;11065;50.786;7.840;2022-10-23T17:04:29;19.20;55.40
21807;DHT22;11065;50.786;7.840;2022-10-23T17:06:56;19.20;55.50
21807;DHT22;11065;50.786;7.840;2022-10-23T17:09:22;19.20;55.60
21807;DHT22;11065;50.786;7.840;2022-10-23T17:11:51;19.10;55.90
21807;DHT22;11065;50.786;7.840;2022-10-23T17:14:20;19.10;56.10
21807;DHT22;11065;50.786;7.840;2022-10-23T17:16:48;19.10;56.30
21807;DHT22;11065;50.786;7.840;2022-10-23T17:19:18;19.00;56.40
21807;DHT22;11065;50.786;7.840;2022-10-23T17:22:05;19.00;56.50
21807;DHT22;11065;50.786;7.840;2022-10-23T17:24:37;18.90;56.50
21807;DHT22;11065;50.786;7.840;2022-10-23T17:27:04;18.90;56.70
21807;DHT22;11065;50.786;7.840;2022-10-23T17:29:31;18.90;56.90
21807;DHT22;11065;50.786;7.840;2022-10-23T17:31:58;18.90;57.00
21807;DHT22;11065;50.786;7.840;2022-10-23T17:34:24;18.80;57.10
21807;DHT22;11065;50.786;7.840;2022-10-23T17:36:53;18.80;57.20
21807;DHT22;11065;50.786;7.840;2022-10-23T17:39:23;18.80;57.50
21807;DHT22;11065;50.786;7.840;2022-10-23T17:41:50;18.70;57.60
21807;DHT22;11065;50.786;7.840;2022-10-23T17:44:17;18.70;57.60
21807;DHT22;11065;50.786;7.840;2022-10-23T17:46:44;18.70;57.80
21807;DHT22;11065;50.786;7.840;2022-10-23T17:49:11;18.70;58.00
21807;DHT22;11065;50.786;7.840;2022-10-23T17:51:39;18.70;58.20
21807;DHT22;11065;50.786;7.840;2022-10-23T17:54:09;18.60;58.30
21807;DHT22;11065;50.786;7.840;2022-10-23T17:56:37;18.60;58.50
21807;DHT22;11065;50.786;7.840;2022-10-23T17:59:07;18.60;58.50
21807;DHT22;11065;50.786;7.840;2022-10-23T18:01:34;18.50;59.30